Terminal Aerodrome Forecast
Issued by NWS

Home | Current Version | Previous Version | Text Only | Print | Product List | Glossary On
Versions: 1 2 3 4 5 6 7 8 9 10 11 12 13 14 15 16 17 18 19 20 21 22 23 24 25 26 27 28 29
000
FTUS42 KMFL 230542
TAFOPF
TAF
KOPF 230542Z 2306/2406 VRB04KT P6SM SCT250
     FM231400 15007KT P6SM SCT030 SCT050 SCT250
     FM231700 14009KT P6SM VCTS SCT025CB BKN050 BKN250
     FM240100 VRB04KT P6SM FEW030 SCT050 SCT250=

USA.gov is the U.S. government's official web portal to all federal, state and local government web resources and services.